Time;durP1;ratioP1;P1;durP2;ratioP2;P2;SDS_P1;SDS_P2;PMS_P1;PMS_P2;Temp;Humidity;BMP_temperature;BMP_pressure;BME280_temperature;BME280_humidity;BME280_pressure;Samples;Min_cycle;Max_cycle;Signal;HPM_P1;HPM_P2
2022/05/16 00:00:52;;;;;;;7.87;4.87;;;18.10;99.90;;;;;;5033454;28;20744;-82
2022/05/16 00:03:38;;;;;;;6.40;3.90;;;18.10;99.90;;;;;;5033781;28;20399;-82
2022/05/16 00:06:23;;;;;;;8.93;3.90;;;18.00;99.90;;;;;;5035081;28;20449;-82
2022/05/16 00:09:07;;;;;;;9.17;4.47;;;18.00;99.90;;;;;;5050355;28;20458;-81
2022/05/16 00:11:52;;;;;;;5.70;4.40;;;18.00;99.90;;;;;;5031414;28;20418;-82
2022/05/16 00:14:38;;;;;;;8.40;3.83;;;18.00;99.90;;;;;;5044377;28;20403;-81
2022/05/16 00:17:23;;;;;;;7.77;3.80;;;17.90;99.90;;;;;;5014830;28;20836;-82
2022/05/16 00:20:08;;;;;;;8.10;3.60;;;17.90;99.90;;;;;;5038331;28;20395;-82
2022/05/16 00:22:53;;;;;;;7.20;5.00;;;17.90;99.90;;;;;;5022831;28;20407;-81
2022/05/16 00:25:37;;;;;;;5.90;4.20;;;17.90;99.90;;;;;;5023534;28;20455;-82
2022/05/16 00:28:22;;;;;;;11.43;4.57;;;17.90;99.90;;;;;;5027350;28;20395;-78
2022/05/16 00:31:06;;;;;;;11.20;3.53;;;17.80;99.90;;;;;;5015096;28;20423;-78
2022/05/16 00:33:51;;;;;;;5.87;4.37;;;17.70;99.90;;;;;;5014930;28;20407;-80
2022/05/16 00:36:35;;;;;;;12.13;4.60;;;17.70;99.90;;;;;;5025050;28;20867;-82
2022/05/16 00:39:21;;;;;;;4.13;3.70;;;17.70;99.90;;;;;;5024511;28;20920;-82
2022/05/16 00:42:05;;;;;;;7.30;4.20;;;17.70;99.90;;;;;;5025640;28;20458;-82
2022/05/16 00:44:50;;;;;;;9.03;4.20;;;17.70;99.90;;;;;;5028411;28;20504;-82
2022/05/16 00:47:35;;;;;;;11.77;4.40;;;17.70;99.90;;;;;;5028485;28;20447;-82
2022/05/16 00:50:20;;;;;;;3.60;3.30;;;17.70;99.90;;;;;;5029594;28;20456;-82
2022/05/16 00:53:04;;;;;;;7.87;4.47;;;17.60;99.90;;;;;;5028064;28;20419;-81
2022/05/16 00:55:49;;;;;;;6.77;4.70;;;17.50;99.90;;;;;;5034680;28;20456;-82
2022/05/16 00:58:35;;;;;;;6.43;3.87;;;17.50;99.90;;;;;;5049609;28;20395;-82
2022/05/16 01:07:11;;;;;;;15.20;5.00;;;17.40;99.90;;;;;;5047010;28;20442;-82
2022/05/16 01:09:56;;;;;;;11.23;5.30;;;17.30;99.90;;;;;;5042989;28;20902;-81
2022/05/16 01:12:45;;;;;;;10.43;4.37;;;17.10;99.90;;;;;;5027936;28;20395;-82
2022/05/16 01:15:41;;;;;;;9.43;3.37;;;17.10;99.90;;;;;;5013018;28;20411;-82
2022/05/16 01:18:27;;;;;;;5.63;4.73;;;17.20;99.90;;;;;;5027007;28;20395;-82
2022/05/16 01:21:30;;;;;;;6.70;4.53;;;17.10;99.90;;;;;;5041862;28;20446;-82
2022/05/16 01:24:18;;;;;;;5.50;3.33;;;17.20;99.90;;;;;;5041834;28;20508;-82
2022/05/16 01:27:02;;;;;;;4.07;3.77;;;17.20;99.90;;;;;;5026632;28;20450;-82
2022/05/16 01:29:48;;;;;;;7.97;4.10;;;17.20;99.90;;;;;;5042588;28;20386;-82
2022/05/16 01:32:33;;;;;;;8.83;4.73;;;17.10;99.90;;;;;;5028874;28;20387;-82
2022/05/16 01:35:21;;;;;;;8.53;5.17;;;17.10;99.90;;;;;;5028034;28;20398;-82
2022/05/16 01:41:07;;;;;;;5.73;4.43;;;17.00;99.90;;;;;;5043908;28;20765;-82
2022/05/16 01:43:55;;;;;;;8.33;4.03;;;17.00;99.90;;;;;;5029954;28;20979;-82
2022/05/16 01:46:40;;;;;;;5.47;4.07;;;17.00;99.90;;;;;;5042108;28;20379;-82
2022/05/16 01:49:25;;;;;;;10.40;4.50;;;16.90;99.90;;;;;;5014934;28;20399;-81
2022/05/16 01:52:09;;;;;;;5.60;4.17;;;16.80;99.90;;;;;;5046084;28;20379;-82
2022/05/16 01:54:54;;;;;;;12.90;4.87;;;16.80;99.90;;;;;;5043774;28;20399;-81
2022/05/16 01:57:39;;;;;;;5.60;3.77;;;16.70;99.90;;;;;;5028675;28;20902;-82
2022/05/16 02:00:25;;;;;;;8.30;5.10;;;16.70;99.90;;;;;;5015051;28;20391;-81
2022/05/16 02:03:10;;;;;;;6.37;4.67;;;16.70;99.90;;;;;;5044387;28;20391;-82
2022/05/16 02:05:55;;;;;;;7.57;4.27;;;16.70;99.90;;;;;;5043639;28;20442;-81
2022/05/16 02:08:40;;;;;;;7.03;4.67;;;16.70;99.90;;;;;;5024447;28;20444;-80
2022/05/16 02:11:25;;;;;;;7.37;4.60;;;16.70;99.90;;;;;;5029270;28;20383;-80
2022/05/16 02:14:10;;;;;;;9.87;4.83;;;16.70;99.90;;;;;;5029059;28;20391;-81
2022/05/16 02:16:54;;;;;;;6.80;4.63;;;16.60;99.90;;;;;;5044497;28;20390;-81
2022/05/16 02:19:39;;;;;;;5.23;4.53;;;16.60;99.90;;;;;;5014616;28;20425;-82
2022/05/16 02:25:27;;;;;;;4.37;3.67;;;16.60;99.90;;;;;;5030099;28;20842;-81
2022/05/16 02:28:14;;;;;;;13.80;5.10;;;16.60;99.90;;;;;;5013731;28;20445;-80
2022/05/16 02:30:59;;;;;;;7.37;3.70;;;16.60;99.90;;;;;;5055167;28;20411;-78
2022/05/16 02:33:43;;;;;;;8.20;4.77;;;16.60;99.90;;;;;;5056678;28;20430;-80
2022/05/16 02:36:29;;;;;;;7.90;4.30;;;16.40;99.90;;;;;;5055759;28;20395;-79
2022/05/16 02:39:16;;;;;;;5.90;4.53;;;16.20;99.90;;;;;;5035977;28;20413;-81
2022/05/16 02:42:00;;;;;;;5.17;4.50;;;15.70;99.90;;;;;;5043096;28;20426;-82
2022/05/16 02:44:45;;;;;;;8.10;4.77;;;15.90;99.90;;;;;;5042004;28;20501;-82
2022/05/16 02:47:30;;;;;;;7.20;5.17;;;15.80;99.90;;;;;;5041976;28;20398;-81
2022/05/16 02:50:15;;;;;;;6.27;5.27;;;15.50;99.90;;;;;;5007265;28;20380;-81
2022/05/16 02:52:59;;;;;;;7.17;4.27;;;15.40;99.90;;;;;;5036060;28;20455;-82
2022/05/16 02:55:44;;;;;;;6.80;3.20;;;15.30;99.90;;;;;;5041167;28;20426;-81
2022/05/16 02:58:29;;;;;;;8.63;5.67;;;15.20;99.90;;;;;;5026876;28;20387;-82
2022/05/16 03:01:13;;;;;;;6.70;4.23;;;15.10;99.90;;;;;;5040822;28;20462;-82
2022/05/16 03:03:58;;;;;;;4.57;4.10;;;15.00;99.90;;;;;;5041880;28;20456;-80
2022/05/16 03:06:45;;;;;;;4.70;4.27;;;15.00;99.90;;;;;;5014164;28;20435;-80
2022/05/16 03:09:29;;;;;;;5.43;4.77;;;14.90;99.90;;;;;;5007127;28;20388;-80
2022/05/16 03:12:14;;;;;;;8.10;4.80;;;15.10;99.90;;;;;;5001428;28;20741;-83
2022/05/16 03:14:59;;;;;;;8.10;6.80;;;15.30;99.90;;;;;;5005710;28;20396;-82
2022/05/16 03:17:45;;;;;;;13.33;5.83;;;15.40;99.90;;;;;;5006793;28;20384;-81
2022/05/16 03:20:29;;;;;;;7.63;4.87;;;15.60;99.90;;;;;;4993441;28;20457;-81
2022/05/16 03:23:14;;;;;;;6.13;4.37;;;15.70;99.90;;;;;;5007247;28;20426;-81
2022/05/16 03:25:59;;;;;;;7.87;4.67;;;15.50;99.90;;;;;;5006867;28;20407;-81
2022/05/16 03:28:44;;;;;;;7.03;4.53;;;15.30;99.90;;;;;;5006917;28;20388;-81
2022/05/16 03:31:29;;;;;;;16.00;4.57;;;14.90;99.90;;;;;;5020182;28;20420;-82
2022/05/16 03:34:14;;;;;;;9.53;4.47;;;14.80;99.90;;;;;;5023006;28;20935;-82
2022/05/16 03:36:59;;;;;;;6.40;5.37;;;14.80;99.90;;;;;;5021077;28;20380;-81
2022/05/16 03:42:49;;;;;;;7.40;5.50;;;14.60;99.90;;;;;;5008822;28;20379;-81
2022/05/16 03:45:33;;;;;;;7.17;4.87;;;14.50;99.90;;;;;;5009373;28;20458;-81
2022/05/16 03:48:18;;;;;;;4.50;4.10;;;14.50;99.90;;;;;;5016315;28;20762;-81
2022/05/16 03:51:04;;;;;;;4.57;4.00;;;14.40;99.90;;;;;;5011193;28;20966;-81
2022/05/16 03:53:49;;;;;;;7.07;5.03;;;14.30;99.90;;;;;;5026286;28;20391;-81
2022/05/16 03:56:34;;;;;;;6.27;5.10;;;14.30;99.90;;;;;;5025182;28;20431;-82
2022/05/16 03:59:19;;;;;;;6.57;4.90;;;14.30;99.90;;;;;;5025451;28;20402;-82
2022/05/16 04:02:05;;;;;;;10.13;5.10;;;14.30;99.90;;;;;;5024459;28;20406;-81
2022/05/16 04:04:50;;;;;;;5.60;5.10;;;14.30;99.90;;;;;;5013384;28;20458;-80
2022/05/16 04:07:35;;;;;;;6.03;4.60;;;14.20;99.90;;;;;;5040249;28;20933;-81
2022/05/16 04:10:20;;;;;;;5.67;4.77;;;14.10;99.90;;;;;;5015082;28;20387;-82
2022/05/16 04:13:04;;;;;;;9.63;6.03;;;14.00;99.90;;;;;;5029387;28;20457;-81
2022/05/16 04:15:49;;;;;;;5.10;4.60;;;14.10;99.90;;;;;;5043950;28;20405;-81
2022/05/16 04:18:33;;;;;;;9.30;5.33;;;14.20;99.90;;;;;;5044546;28;20809;-82
2022/05/16 04:21:18;;;;;;;6.50;5.57;;;14.40;99.90;;;;;;5029644;28;20514;-82
2022/05/16 04:24:05;;;;;;;10.70;5.10;;;14.60;99.90;;;;;;5030018;28;20463;-83
2022/05/16 04:26:49;;;;;;;8.87;4.93;;;15.00;99.90;;;;;;5030148;28;20449;-80
2022/05/16 04:29:34;;;;;;;9.50;5.40;;;15.40;99.90;;;;;;5030229;28;20402;-82
2022/05/16 04:32:19;;;;;;;10.40;6.13;;;15.60;99.90;;;;;;5044958;28;20395;-81
2022/05/16 04:35:04;;;;;;;9.50;6.10;;;15.80;99.90;;;;;;5030601;28;20391;-82
2022/05/16 04:37:49;;;;;;;7.60;5.10;;;15.80;99.90;;;;;;5030975;28;20391;-84
2022/05/16 04:42:40;;;;;;;5.90;4.93;;;16.00;99.90;;;;;;5029360;28;20409;-82
2022/05/16 04:43:39;;;;;;;9.63;6.20;;;16.10;99.90;;;;;;5032586;28;20438;-82
2022/05/16 04:46:24;;;;;;;10.13;4.73;;;16.10;99.90;;;;;;5029225;28;20399;-81
2022/05/16 04:49:08;;;;;;;10.83;5.67;;;16.00;99.90;;;;;;5015377;28;20724;-81
2022/05/16 04:51:53;;;;;;;7.90;6.30;;;15.50;99.90;;;;;;5029874;28;20491;-81
2022/05/16 04:54:40;;;;;;;9.60;4.40;;;15.80;99.90;;;;;;5043174;28;20414;-82
2022/05/16 04:57:25;;;;;;;11.93;5.30;;;16.20;99.90;;;;;;5027188;28;20490;-80
2022/05/16 05:00:12;;;;;;;9.10;4.80;;;16.40;99.90;;;;;;5042493;28;20391;-81
2022/05/16 05:03:06;;;;;;;5.97;5.47;;;16.40;99.90;;;;;;5026713;28;20395;-82
2022/05/16 05:05:50;;;;;;;8.30;4.90;;;16.60;99.90;;;;;;5027159;28;20810;-82
2022/05/16 05:08:35;;;;;;;9.53;4.90;;;16.70;99.90;;;;;;5042045;28;20477;-82
2022/05/16 05:14:39;;;;;;;6.33;5.37;;;16.90;99.90;;;;;;5062485;28;20406;-82
2022/05/16 05:17:24;;;;;;;7.60;5.07;;;16.90;99.90;;;;;;5047504;28;20382;-82
2022/05/16 05:20:14;;;;;;;6.13;4.43;;;16.30;99.90;;;;;;5046650;28;20401;-82
2022/05/16 05:23:00;;;;;;;7.17;4.97;;;16.60;99.90;;;;;;5062976;28;20394;-80
2022/05/16 05:25:44;;;;;;;8.77;5.33;;;16.60;99.90;;;;;;5047199;28;20465;-82
2022/05/16 05:28:29;;;;;;;9.13;4.73;;;16.80;99.90;;;;;;5047239;28;20386;-82
2022/05/16 05:31:15;;;;;;;13.03;5.50;;;16.80;99.90;;;;;;5063009;28;20394;-81
2022/05/16 05:34:01;;;;;;;8.93;5.47;;;17.00;99.90;;;;;;5054799;28;20409;-81
2022/05/16 05:36:46;;;;;;;5.80;4.83;;;17.00;99.90;;;;;;5064973;28;20398;-80
2022/05/16 05:39:31;;;;;;;5.90;5.30;;;17.30;99.90;;;;;;5034805;28;20887;-80
2022/05/16 05:42:16;;;;;;;8.00;5.70;;;17.20;99.90;;;;;;5048462;28;20398;-81
2022/05/16 05:45:02;;;;;;;6.30;5.67;;;17.20;99.90;;;;;;5048122;28;20453;-82
2022/05/16 05:47:46;;;;;;;8.07;4.83;;;17.30;99.90;;;;;;5041127;28;20507;-81
2022/05/16 05:50:31;;;;;;;8.40;5.63;;;17.10;99.90;;;;;;5009133;28;20463;-81
2022/05/16 05:53:15;;;;;;;5.73;5.20;;;17.10;99.90;;;;;;5049786;28;20482;-81
2022/05/16 05:56:00;;;;;;;4.90;4.50;;;16.80;99.90;;;;;;5046466;28;20829;-82
2022/05/16 05:58:46;;;;;;;5.93;4.90;;;16.70;99.90;;;;;;5032165;28;20394;-82
2022/05/16 06:01:31;;;;;;;7.30;5.93;;;16.80;99.90;;;;;;5040976;28;20456;-82
2022/05/16 06:04:16;;;;;;;7.70;5.90;;;16.90;99.90;;;;;;5033523;28;20528;-82
2022/05/16 06:07:01;;;;;;;15.00;5.90;;;16.70;99.90;;;;;;5043111;28;20967;-81
2022/05/16 06:09:45;;;;;;;6.20;5.60;;;16.90;99.90;;;;;;5025135;28;20410;-81
2022/05/16 06:12:30;;;;;;;11.70;6.90;;;16.90;99.90;;;;;;5014292;28;20851;-80
2022/05/16 06:15:18;;;;;;;8.57;5.43;;;17.00;99.90;;;;;;4995104;28;20470;-80
2022/05/16 06:18:03;;;;;;;7.93;5.50;;;17.30;99.90;;;;;;4990455;28;20451;-79
2022/05/16 06:20:49;;;;;;;6.10;5.40;;;17.30;99.90;;;;;;4963756;28;20457;-81
2022/05/16 06:23:34;;;;;;;4.87;4.43;;;17.40;99.90;;;;;;4960181;28;21018;-78
2022/05/16 06:26:19;;;;;;;5.93;5.20;;;17.50;99.90;;;;;;4943829;28;20820;-80
2022/05/16 06:29:03;;;;;;;5.73;4.53;;;17.30;99.90;;;;;;4986252;28;20522;-81
2022/05/16 06:31:49;;;;;;;7.00;4.90;;;17.30;99.90;;;;;;4947343;28;20461;-81
2022/05/16 06:34:34;;;;;;;10.90;6.10;;;17.30;99.90;;;;;;4960276;28;20474;-79
2022/05/16 06:37:18;;;;;;;6.60;5.60;;;17.60;99.90;;;;;;4960961;28;20468;-78
2022/05/16 06:40:04;;;;;;;7.50;4.97;;;17.80;99.90;;;;;;4962296;28;20941;-81
2022/05/16 06:42:49;;;;;;;8.90;5.83;;;18.10;99.90;;;;;;4973251;28;20509;-80
2022/05/16 06:45:33;;;;;;;9.77;5.40;;;18.30;99.90;;;;;;4940907;28;20521;-81
2022/05/16 06:48:18;;;;;;;6.10;5.27;;;18.70;99.90;;;;;;4963157;28;20489;-81
2022/05/16 06:51:02;;;;;;;7.27;5.53;;;18.90;99.90;;;;;;4968956;28;20435;-81
2022/05/16 06:53:47;;;;;;;7.33;5.50;;;19.10;99.90;;;;;;4993710;28;20435;-81
2022/05/16 06:56:32;;;;;;;10.07;5.87;;;19.20;99.90;;;;;;4998757;28;20834;-81
2022/05/16 06:59:18;;;;;;;9.60;5.03;;;19.30;99.90;;;;;;4994678;28;20451;-79
2022/05/16 07:02:05;;;;;;;6.17;3.93;;;19.20;99.90;;;;;;5001481;28;20447;-79
2022/05/16 07:04:51;;;;;;;9.10;6.53;;;18.90;99.90;;;;;;4991597;28;20547;-81
2022/05/16 07:07:37;;;;;;;6.23;5.40;;;19.10;99.90;;;;;;4987839;28;21101;-81
2022/05/16 07:10:25;;;;;;;4.90;4.37;;;19.10;99.90;;;;;;4983071;28;20578;-81
2022/05/16 07:13:10;;;;;;;8.83;5.27;;;19.30;99.90;;;;;;4996296;28;20541;-80
2022/05/16 07:15:56;;;;;;;7.00;5.20;;;19.50;99.90;;;;;;4997133;28;20783;-80
2022/05/16 07:18:40;;;;;;;6.00;4.60;;;19.50;99.90;;;;;;5010595;28;20473;-81
2022/05/16 07:21:26;;;;;;;10.70;6.07;;;19.70;99.90;;;;;;5034958;28;20477;-80
2022/05/16 07:24:11;;;;;;;10.60;4.77;;;19.80;99.90;;;;;;5012224;28;20514;-81
2022/05/16 07:29:50;;;;;;;6.13;5.07;;;19.90;99.90;;;;;;5007337;28;20442;-83
2022/05/16 07:32:41;;;;;;;5.17;4.73;;;19.70;99.90;;;;;;4999192;28;20443;-83
2022/05/16 07:35:30;;;;;;;4.60;4.20;;;19.70;99.90;;;;;;4984359;28;20507;-84
2022/05/16 07:38:14;;;;;;;7.40;4.30;;;19.70;99.90;;;;;;4992297;28;20459;-83
2022/05/16 07:40:59;;;;;;;6.03;5.43;;;20.10;99.90;;;;;;4990972;28;20459;-83
2022/05/16 07:43:43;;;;;;;6.57;5.47;;;20.20;99.90;;;;;;4998092;28;20506;-82
2022/05/16 07:46:28;;;;;;;6.07;5.47;;;20.40;99.90;;;;;;5003242;28;20451;-82
2022/05/16 07:49:13;;;;;;;5.27;4.70;;;20.20;99.90;;;;;;5022979;28;20418;-83
2022/05/16 07:51:58;;;;;;;16.80;5.07;;;20.50;99.90;;;;;;5015655;28;20976;-83
2022/05/16 07:54:42;;;;;;;10.97;5.00;;;20.60;99.90;;;;;;5000127;28;20456;-83
2022/05/16 07:57:30;;;;;;;6.73;4.63;;;20.70;99.90;;;;;;5036233;28;20436;-80
2022/05/16 08:00:16;;;;;;;6.77;4.60;;;20.90;99.90;;;;;;5059203;28;20946;-80
2022/05/16 08:03:02;;;;;;;4.50;4.13;;;21.00;99.90;;;;;;5046234;28;20475;-82
2022/05/16 08:05:47;;;;;;;8.43;3.80;;;21.10;99.90;;;;;;5040244;28;20547;-82
2022/05/16 08:11:36;;;;;;;9.80;4.53;;;21.40;99.90;;;;;;4998113;28;20460;-82
2022/05/16 08:14:21;;;;;;;4.30;3.30;;;21.50;99.90;;;;;;4976464;28;20454;-82
2022/05/16 08:17:06;;;;;;;11.57;4.20;;;21.40;99.90;;;;;;4995858;28;20575;-81
2022/05/16 08:19:50;;;;;;;8.37;3.90;;;21.60;99.90;;;;;;5001915;28;20546;-81
2022/05/16 08:22:35;;;;;;;4.53;3.23;;;21.80;99.90;;;;;;4979934;28;20567;-82
2022/05/16 08:25:21;;;;;;;4.17;3.80;;;21.80;99.90;;;;;;4964142;28;21460;-82
2022/05/16 08:28:07;;;;;;;5.43;3.43;;;22.10;99.90;;;;;;4987320;28;20491;-81
2022/05/16 08:30:52;;;;;;;6.77;3.97;;;22.40;99.90;;;;;;4993164;28;20810;-82
2022/05/16 08:33:39;;;;;;;8.30;4.20;;;22.40;99.90;;;;;;4965421;28;20487;-81
2022/05/16 08:42:27;;;;;;;4.10;3.70;;;22.50;99.90;;;;;;5018297;28;20938;-79
2022/05/16 08:45:20;;;;;;;5.73;3.77;;;22.70;99.90;;;;;;5030509;28;20469;-83
2022/05/16 08:48:23;;;;;;;3.50;3.20;;;22.70;99.90;;;;;;5061331;28;20417;-80
2022/05/16 08:51:17;;;;;;;3.23;2.90;;;22.90;99.90;;;;;;5053153;28;20433;-83
2022/05/16 08:54:22;;;;;;;4.23;3.10;;;23.20;99.90;;;;;;5050543;28;20965;-81
2022/05/16 08:57:14;;;;;;;7.73;4.33;;;23.40;99.90;;;;;;5039168;28;20457;-79
2022/05/16 09:00:07;;;;;;;6.43;3.70;;;23.50;99.90;;;;;;5049365;28;20422;-82
2022/05/16 09:02:54;;;;;;;3.77;3.30;;;23.30;99.90;;;;;;5048962;28;20747;-81
2022/05/16 09:05:47;;;;;;;5.97;3.63;;;23.20;99.90;;;;;;5031319;28;20499;-79
2022/05/16 09:08:43;;;;;;;4.10;3.80;;;22.90;99.90;;;;;;5042622;28;20464;-81
2022/05/16 09:12:02;;;;;;;5.33;3.67;;;22.70;99.90;;;;;;5066010;28;20426;-81
2022/05/16 09:15:06;;;;;;;4.00;3.70;;;22.60;99.90;;;;;;5025164;28;20430;-81
2022/05/16 09:18:12;;;;;;;6.43;4.00;;;22.60;99.90;;;;;;5035452;28;20494;-81
2022/05/16 09:21:22;;;;;;;4.87;3.93;;;22.40;99.90;;;;;;5065021;28;20439;-81
2022/05/16 09:24:13;;;;;;;5.03;3.47;;;22.30;99.90;;;;;;5042784;28;20957;-81
2022/05/16 09:30:27;;;;;;;7.20;4.00;;;22.60;99.90;;;;;;5055295;28;20424;-83
2022/05/16 09:33:18;;;;;;;5.82;4.40;;;22.50;99.90;;;;;;5017076;28;20508;-82
2022/05/16 09:36:07;;;;;;;4.70;4.10;;;22.60;99.90;;;;;;5019433;28;20236;-81
2022/05/16 09:38:52;;;;;;;4.40;4.00;;;22.70;99.90;;;;;;5040682;28;20477;-82
2022/05/16 09:41:51;;;;;;;3.70;3.40;;;22.70;99.90;;;;;;5044092;28;20430;-82
2022/05/16 09:44:45;;;;;;;5.67;4.13;;;22.60;99.90;;;;;;5049001;28;20481;-81
2022/05/16 09:47:37;;;;;;;4.33;3.87;;;22.70;99.90;;;;;;5021589;28;20520;-82
2022/05/16 09:50:25;;;;;;;5.30;4.13;;;22.70;99.90;;;;;;5048954;28;20598;-79
2022/05/16 09:53:14;;;;;;;9.27;4.50;;;22.80;99.90;;;;;;5016044;28;20470;-79
2022/05/16 09:56:03;;;;;;;3.90;3.60;;;22.70;99.90;;;;;;5024528;28;20514;-80
2022/05/16 09:58:52;;;;;;;9.13;5.40;;;22.40;99.90;;;;;;5035966;28;20475;-81
2022/05/16 10:01:45;;;;;;;5.77;4.07;;;22.60;99.90;;;;;;5023224;28;20454;-81
2022/05/16 10:04:39;;;;;;;4.97;4.47;;;23.00;99.90;;;;;;5056618;28;20532;-81
2022/05/16 10:07:31;;;;;;;4.67;4.27;;;23.20;99.90;;;;;;5063870;28;20473;-80
2022/05/16 10:10:21;;;;;;;5.73;4.23;;;23.10;99.90;;;;;;5046772;28;20445;-81
2022/05/16 10:13:06;;;;;;;4.40;3.70;;;23.10;99.90;;;;;;5062698;28;20426;-80
2022/05/16 10:15:54;;;;;;;5.57;5.07;;;23.20;99.90;;;;;;5061095;28;20457;-78
2022/05/16 10:18:50;;;;;;;4.47;4.07;;;23.30;99.90;;;;;;5052054;28;20546;-81
2022/05/16 10:21:40;;;;;;;5.70;4.60;;;23.60;99.90;;;;;;5033142;28;20454;-81
2022/05/16 10:24:31;;;;;;;9.33;4.60;;;23.90;99.90;;;;;;5056935;28;20464;-82
2022/05/16 10:27:21;;;;;;;6.13;5.00;;;24.00;99.90;;;;;;5004269;28;21022;-80
2022/05/16 10:30:12;;;;;;;5.50;5.10;;;23.90;99.90;;;;;;5003795;28;20850;-82
2022/05/16 10:36:12;;;;;;;7.77;4.57;;;23.70;99.90;;;;;;4991807;28;20567;-80
2022/05/16 10:39:23;;;;;;;4.17;3.87;;;23.60;99.90;;;;;;4994152;28;20490;-83
2022/05/16 10:42:30;;;;;;;5.43;4.80;;;23.70;99.90;;;;;;5003448;28;20443;-82
2022/05/16 10:45:19;;;;;;;5.23;4.47;;;23.90;99.90;;;;;;4989531;28;20599;-82
2022/05/16 10:48:16;;;;;;;4.67;4.37;;;23.70;99.90;;;;;;4969526;28;20781;-81
2022/05/16 10:51:08;;;;;;;6.67;4.37;;;23.50;99.90;;;;;;4971356;28;20495;-81
2022/05/16 10:54:35;;;;;;;4.57;3.90;;;23.20;99.90;;;;;;4985799;28;20444;-81
2022/05/16 10:57:38;;;;;;;7.90;4.43;;;23.60;99.90;;;;;;4976513;28;20534;-81
2022/05/16 11:00:39;;;;;;;5.10;4.60;;;23.60;99.90;;;;;;4962029;28;20445;-78
2022/05/16 11:03:44;;;;;;;5.53;4.43;;;23.80;99.90;;;;;;4967550;28;20452;-78
2022/05/16 11:06:53;;;;;;;4.37;4.00;;;23.70;99.90;;;;;;4961266;28;20560;-79
2022/05/16 11:10:05;;;;;;;5.13;4.00;;;23.70;99.90;;;;;;4980591;28;20430;-77
2022/05/16 11:13:07;;;;;;;5.07;4.60;;;23.70;99.90;;;;;;4946996;29;20467;-77
2022/05/16 11:16:26;;;;;;;5.20;4.20;;;23.80;99.90;;;;;;4917879;29;20429;-77
2022/05/16 11:19:28;;;;;;;7.10;3.63;;;23.80;99.90;;;;;;4932158;29;20520;-79
2022/05/16 11:22:38;;;;;;;6.97;4.30;;;23.70;99.90;;;;;;4952847;29;20467;-78
2022/05/16 11:25:46;;;;;;;5.57;5.07;;;23.80;99.90;;;;;;4898278;29;20468;-81
2022/05/16 11:32:24;;;;;;;9.43;5.53;;;24.00;99.90;;;;;;4933927;29;20494;-79
2022/05/16 11:35:34;;;;;;;5.20;4.57;;;24.20;99.90;;;;;;4941376;29;20459;-79
2022/05/16 11:38:37;;;;;;;9.80;5.30;;;24.10;99.90;;;;;;4899342;29;20519;-80
2022/05/16 11:41:44;;;;;;;9.00;5.10;;;24.00;99.90;;;;;;4893798;29;21051;-79
2022/05/16 11:44:36;;;;;;;6.20;5.60;;;24.10;99.90;;;;;;4946226;29;21527;-81
2022/05/16 11:47:30;;;;;;;9.20;6.03;;;24.40;99.90;;;;;;4926731;29;20489;-80
2022/05/16 11:50:33;;;;;;;6.00;5.50;;;24.60;99.90;;;;;;4901763;29;20510;-81
2022/05/16 11:53:57;;;;;;;18.40;5.80;;;24.90;99.90;;;;;;4896108;29;20437;-79
2022/05/16 12:03:17;;;;;;;7.40;5.87;;;26.10;99.90;;;;;;4971552;28;20433;-82
2022/05/16 12:06:26;;;;;;;5.33;4.97;;;25.90;99.90;;;;;;4961336;28;20503;-83
2022/05/16 12:09:20;;;;;;;5.10;4.57;;;25.30;99.90;;;;;;4981342;28;20464;-84
2022/05/16 12:12:12;;;;;;;5.53;4.93;;;25.70;99.90;;;;;;4969399;28;20436;-82
2022/05/16 12:15:27;;;;;;;4.87;4.47;;;25.90;99.90;;;;;;4980200;28;20436;-84
2022/05/16 12:18:34;;;;;;;6.20;4.67;;;26.20;99.90;;;;;;4991944;28;20475;-84
2022/05/16 12:21:32;;;;;;;6.23;4.40;;;26.40;99.90;;;;;;5011015;28;20441;-82
2022/05/16 12:24:30;;;;;;;5.50;5.03;;;25.20;99.90;;;;;;5019625;28;20522;-83
2022/05/16 12:27:34;;;;;;;5.17;4.63;;;24.70;99.90;;;;;;5018874;28;20435;-82
2022/05/16 12:30:42;;;;;;;6.60;5.90;;;24.50;99.90;;;;;;5004244;28;20478;-83
2022/05/16 12:33:50;;;;;;;5.40;4.50;;;25.10;99.90;;;;;;5013566;28;20433;-82
2022/05/16 12:36:34;;;;;;;5.57;5.07;;;25.90;99.90;;;;;;5039775;28;20476;-84
2022/05/16 12:39:31;;;;;;;9.03;4.60;;;26.50;99.90;;;;;;5060099;28;20425;-82
2022/05/16 12:42:39;;;;;;;5.13;4.73;;;26.40;99.90;;;;;;5051094;28;20472;-84
2022/05/16 12:45:49;;;;;;;5.70;4.23;;;26.40;99.90;;;;;;5049574;28;20512;-81
2022/05/16 12:49:05;;;;;;;5.63;4.03;;;26.50;99.90;;;;;;5018474;28;20526;-81
2022/05/16 12:51:56;;;;;;;6.33;4.80;;;26.70;99.90;;;;;;5004417;28;20443;-81
2022/05/16 12:55:03;;;;;;;5.13;4.40;;;27.40;99.90;;;;;;4997658;28;20451;-79
2022/05/16 12:57:57;;;;;;;4.67;4.27;;;27.50;99.90;;;;;;5007110;28;20426;-82
2022/05/16 13:00:51;;;;;;;3.97;3.63;;;28.30;99.90;;;;;;5003443;28;20466;-81
2022/05/16 13:04:01;;;;;;;5.63;4.10;;;29.40;99.60;;;;;;5004200;28;20218;-81
2022/05/16 13:06:55;;;;;;;5.82;4.13;;;29.70;97.60;;;;;;5005350;28;20621;-82
2022/05/16 13:10:02;;;;;;;5.10;4.20;;;28.40;97.90;;;;;;4993772;28;20199;-82
2022/05/16 13:13:21;;;;;;;6.10;4.57;;;27.40;99.00;;;;;;4993984;28;20242;-81
2022/05/16 13:16:26;;;;;;;4.50;4.10;;;27.10;99.90;;;;;;5017513;28;20450;-81
2022/05/16 13:19:15;;;;;;;4.80;4.40;;;26.30;99.90;;;;;;5007750;28;20797;-81
2022/05/16 13:22:06;;;;;;;4.77;4.10;;;26.50;99.90;;;;;;5031552;28;20420;-82
2022/05/16 13:25:10;;;;;;;5.80;4.30;;;25.80;99.90;;;;;;5044803;28;20521;-82
2022/05/16 13:30:58;;;;;;;5.83;4.80;;;25.40;99.90;;;;;;5048025;28;20462;-81
2022/05/16 13:33:43;;;;;;;6.47;4.67;;;25.30;99.90;;;;;;5036497;28;20758;-80
2022/05/16 13:36:28;;;;;;;5.70;4.00;;;25.10;99.90;;;;;;5030755;28;20480;-80
2022/05/16 13:39:15;;;;;;;10.70;4.60;;;24.90;99.90;;;;;;5059363;28;20485;-82
2022/05/16 13:42:01;;;;;;;4.70;4.20;;;25.00;99.90;;;;;;5027913;28;20976;-80
2022/05/16 13:44:49;;;;;;;9.80;4.57;;;25.00;99.90;;;;;;5051101;28;20465;-80
2022/05/16 13:47:42;;;;;;;11.17;4.50;;;24.70;99.90;;;;;;5020606;28;20780;-83
2022/05/16 13:50:32;;;;;;;5.40;4.60;;;24.50;99.90;;;;;;5030881;28;20901;-81
2022/05/16 13:53:22;;;;;;;5.13;4.53;;;24.50;99.90;;;;;;5023876;28;20491;-80
2022/05/16 13:56:07;;;;;;;4.97;4.50;;;24.40;99.90;;;;;;5044498;28;20542;-81
2022/05/16 13:59:15;;;;;;;4.77;4.30;;;24.30;99.90;;;;;;5058935;28;20424;-81
2022/05/16 14:02:08;;;;;;;4.90;4.50;;;24.20;99.90;;;;;;5039808;28;20478;-82
2022/05/16 14:05:11;;;;;;;10.87;5.10;;;23.70;99.90;;;;;;5057130;27;1589965;-80
2022/05/16 14:08:03;;;;;;;6.13;4.37;;;23.70;99.90;;;;;;5016351;28;20196;-84
2022/05/16 14:10:49;;;;;;;6.27;4.67;;;23.30;99.90;;;;;;4982961;28;20538;-83
2022/05/16 14:13:41;;;;;;;7.43;4.17;;;22.70;99.90;;;;;;5021574;28;20442;-86
2022/05/16 14:16:31;;;;;;;5.77;4.97;;;22.80;99.90;;;;;;4993760;28;20460;-85
2022/05/16 14:19:28;;;;;;;5.07;4.67;;;22.60;99.90;;;;;;4965291;28;20477;-83
2022/05/16 14:22:32;;;;;;;5.80;5.30;;;22.60;99.90;;;;;;4966998;28;20462;-82
2022/05/16 14:25:39;;;;;;;5.23;4.63;;;22.10;99.90;;;;;;4965583;28;20546;-85
2022/05/16 14:28:29;;;;;;;6.00;5.40;;;22.40;99.90;;;;;;4974719;28;20425;-84
2022/05/16 14:31:32;;;;;;;8.60;4.23;;;22.20;99.90;;;;;;4973335;28;20480;-83
2022/05/16 14:34:25;;;;;;;6.20;4.63;;;22.50;99.90;;;;;;4978016;28;20473;-83
2022/05/16 14:37:25;;;;;;;6.67;4.63;;;22.60;99.90;;;;;;4958400;28;20704;-81
2022/05/16 14:40:14;;;;;;;5.03;4.67;;;22.30;99.90;;;;;;4964999;28;20453;-82
2022/05/16 14:43:07;;;;;;;7.33;4.70;;;22.40;99.90;;;;;;4995950;28;20465;-82
2022/05/16 14:48:54;;;;;;;5.30;4.80;;;21.90;99.90;;;;;;5023402;28;20402;-83
2022/05/16 14:51:40;;;;;;;5.83;5.20;;;22.00;99.90;;;;;;4986560;28;20451;-83
2022/05/16 14:54:35;;;;;;;4.83;4.37;;;21.90;99.90;;;;;;4999807;28;20475;-84
2022/05/16 14:57:22;;;;;;;7.20;5.40;;;21.80;99.90;;;;;;5019870;28;20470;-84
2022/05/16 15:04:02;;;;;;;5.63;4.83;;;21.60;99.90;;;;;;5021766;28;20442;-83
2022/05/16 15:06:22;;;;;;;6.83;5.93;;;21.70;99.90;;;;;;5041801;28;20434;-82
2022/05/16 15:09:14;;;;;;;5.40;4.70;;;21.70;99.90;;;;;;4998668;28;20439;-83
2022/05/16 15:12:05;;;;;;;6.83;5.40;;;21.90;99.90;;;;;;4987650;28;20750;-83
2022/05/16 15:14:50;;;;;;;5.10;4.70;;;22.00;99.90;;;;;;4996997;28;20912;-82
2022/05/16 15:17:34;;;;;;;7.77;4.23;;;22.20;99.90;;;;;;4987719;28;20484;-84
2022/05/16 15:20:19;;;;;;;11.20;5.43;;;21.90;99.90;;;;;;4974051;28;20444;-83
2022/05/16 15:23:04;;;;;;;8.40;5.10;;;22.30;99.90;;;;;;5001845;28;20842;-82
2022/05/16 15:25:52;;;;;;;11.17;5.07;;;22.60;99.90;;;;;;5020314;28;20419;-84
2022/05/16 15:28:42;;;;;;;5.10;4.47;;;22.90;99.90;;;;;;5009667;28;20411;-84
2022/05/16 15:31:28;;;;;;;5.50;5.00;;;23.10;99.90;;;;;;5000054;28;20411;-82
2022/05/16 15:34:17;;;;;;;6.47;4.93;;;23.10;99.90;;;;;;4998842;28;20443;-81
2022/05/16 15:37:06;;;;;;;6.17;4.30;;;23.10;99.90;;;;;;4970291;28;20452;-84
2022/05/16 15:43:11;;;;;;;5.60;3.93;;;23.10;99.90;;;;;;4981324;28;20471;-83